createdAt,value
2022-12-08T00:00:52.685Z,5.60
2022-12-08T00:03:20.425Z,7.43
2022-12-08T00:06:03.357Z,5.57
2022-12-08T00:08:49.972Z,4.80
2022-12-08T00:11:18.203Z,6.43
2022-12-08T00:13:45.889Z,5.70
2022-12-08T00:16:13.524Z,6.60
2022-12-08T00:18:41.143Z,5.67
2022-12-08T00:21:08.615Z,6.00
2022-12-08T00:23:37.401Z,7.23
2022-12-08T00:26:05.539Z,5.50
2022-12-08T00:28:34.377Z,5.03
2022-12-08T00:31:09.198Z,4.77
2022-12-08T00:33:37.426Z,5.30
2022-12-08T00:36:07.837Z,4.80
2022-12-08T00:38:37.047Z,5.63
2022-12-08T00:41:07.931Z,5.77
2022-12-08T00:43:35.433Z,6.37
2022-12-08T00:46:02.862Z,6.17
2022-12-08T00:48:30.348Z,6.03
2022-12-08T00:50:57.829Z,6.07
2022-12-08T00:53:25.272Z,6.27
2022-12-08T00:55:54.243Z,6.47
2022-12-08T00:58:21.685Z,6.37
2022-12-08T01:00:49.240Z,7.60
2022-12-08T01:03:16.868Z,6.97
2022-12-08T01:05:44.449Z,6.23
2022-12-08T01:08:12.020Z,6.60
2022-12-08T01:10:40.418Z,6.03
2022-12-08T01:13:09.284Z,7.70
2022-12-08T01:15:38.031Z,7.10
2022-12-08T01:18:05.742Z,7.47
2022-12-08T01:20:33.170Z,7.90
2022-12-08T01:23:00.699Z,7.20
2022-12-08T01:25:28.194Z,7.63
2022-12-08T01:27:55.660Z,7.20
2022-12-08T01:30:24.563Z,7.23
2022-12-08T01:32:52.118Z,7.63
2022-12-08T01:35:19.611Z,7.87
2022-12-08T01:37:47.280Z,6.70
2022-12-08T01:40:14.866Z,8.47
2022-12-08T01:42:42.428Z,8.83
2022-12-08T01:45:18.711Z,8.40
2022-12-08T01:47:51.179Z,8.33
2022-12-08T01:50:21.545Z,8.50
2022-12-08T01:52:53.724Z,6.70
2022-12-08T01:55:26.164Z,7.90
2022-12-08T01:57:59.705Z,8.77
2022-12-08T02:00:27.374Z,7.57
2022-12-08T02:02:59.812Z,8.93
2022-12-08T02:05:30.062Z,8.03
2022-12-08T02:07:59.513Z,8.57
2022-12-08T02:10:30.719Z,9.10
2022-12-08T02:13:00.024Z,8.27
2022-12-08T02:15:36.012Z,10.23
2022-12-08T02:18:18.212Z,7.43
2022-12-08T02:20:54.160Z,7.37
2022-12-08T02:23:31.286Z,8.70
2022-12-08T02:26:29.850Z,8.57
2022-12-08T02:29:26.569Z,8.10
2022-12-08T02:32:08.113Z,8.77
2022-12-08T02:34:42.824Z,9.20
2022-12-08T02:37:17.777Z,9.33
2022-12-08T02:39:54.827Z,9.57
2022-12-08T02:42:26.085Z,9.17
2022-12-08T02:44:59.786Z,9.03
2022-12-08T02:47:29.574Z,9.70
2022-12-08T02:49:58.654Z,10.17
2022-12-08T02:52:43.562Z,9.27
2022-12-08T02:55:20.250Z,8.30
2022-12-08T02:58:05.485Z,8.30
2022-12-08T03:00:44.611Z,8.63
2022-12-08T03:03:20.481Z,9.27
2022-12-08T03:06:02.651Z,8.60
2022-12-08T03:08:37.314Z,8.40
2022-12-08T03:11:10.463Z,9.00
2022-12-08T03:13:42.882Z,8.73
2022-12-08T03:16:14.073Z,10.70
2022-12-08T03:18:48.272Z,8.87
2022-12-08T03:21:20.453Z,10.70
2022-12-08T03:23:51.603Z,9.90
2022-12-08T03:26:24.512Z,9.27
2022-12-08T03:28:52.040Z,10.20
2022-12-08T03:31:20.758Z,9.90
2022-12-08T03:33:52.578Z,11.70
2022-12-08T03:36:21.851Z,11.43
2022-12-08T03:38:53.343Z,10.40
2022-12-08T03:41:22.204Z,10.47
2022-12-08T03:43:52.290Z,9.77
2022-12-08T03:48:51.154Z,10.13
2022-12-08T03:51:19.024Z,9.33
2022-12-08T03:53:48.135Z,11.07
2022-12-08T03:56:20.730Z,11.27
2022-12-08T03:58:48.197Z,11.30
2022-12-08T04:01:15.666Z,10.57
2022-12-08T04:03:43.108Z,10.77
2022-12-08T04:06:10.582Z,11.00
2022-12-08T04:08:38.102Z,10.77
2022-12-08T04:11:07.490Z,10.83
2022-12-08T04:13:35.596Z,12.97
2022-12-08T04:16:03.519Z,10.33
2022-12-08T04:18:31.004Z,10.83
2022-12-08T04:20:58.479Z,10.07
2022-12-08T04:23:26.452Z,10.97
2022-12-08T04:25:54.140Z,10.37
2022-12-08T04:28:23.004Z,12.70
2022-12-08T04:30:51.144Z,11.90
2022-12-08T04:33:18.751Z,11.43
2022-12-08T04:35:46.609Z,12.07
2022-12-08T04:38:14.386Z,12.23
2022-12-08T04:40:41.897Z,12.90
2022-12-08T04:43:09.527Z,13.43
2022-12-08T04:45:40.085Z,12.13
2022-12-08T04:48:07.754Z,11.67
2022-12-08T04:50:35.267Z,12.60
2022-12-08T04:53:02.723Z,13.73
2022-12-08T04:55:30.189Z,11.57
2022-12-08T04:57:57.649Z,12.50
2022-12-08T05:00:25.427Z,12.63
2022-12-08T05:02:54.279Z,12.37
2022-12-08T05:05:21.804Z,12.83
2022-12-08T05:07:49.272Z,12.70
2022-12-08T05:10:16.978Z,13.80
2022-12-08T05:12:44.553Z,14.23
2022-12-08T05:15:12.070Z,12.87
2022-12-08T05:17:39.496Z,11.87
2022-12-08T05:20:10.296Z,13.13
2022-12-08T05:22:37.738Z,11.93
2022-12-08T05:25:05.842Z,14.63
2022-12-08T05:27:33.384Z,13.80
2022-12-08T05:30:01.093Z,13.63
2022-12-08T05:32:28.747Z,13.83
2022-12-08T05:34:56.239Z,13.80
2022-12-08T05:37:25.028Z,14.67
2022-12-08T05:39:52.498Z,13.93
2022-12-08T05:42:24.576Z,15.20
2022-12-08T05:44:52.604Z,14.77
2022-12-08T05:47:20.363Z,12.93
2022-12-08T05:49:47.983Z,13.37
2022-12-08T05:52:16.788Z,12.27
2022-12-08T05:54:45.607Z,13.93
2022-12-08T05:57:13.095Z,15.10
2022-12-08T05:59:40.582Z,13.53
2022-12-08T06:02:09.141Z,14.10
2022-12-08T06:04:37.542Z,14.47
2022-12-08T06:07:05.070Z,15.07
2022-12-08T06:09:32.717Z,14.50
2022-12-08T06:12:01.991Z,14.10
2022-12-08T06:14:29.471Z,12.00
2022-12-08T06:16:56.958Z,13.37
2022-12-08T06:19:24.457Z,12.87
2022-12-08T06:21:51.912Z,13.77
2022-12-08T06:24:19.384Z,12.27
2022-12-08T06:26:46.864Z,12.80
2022-12-08T06:29:15.856Z,14.47
2022-12-08T06:31:43.383Z,13.60
2022-12-08T06:34:10.966Z,13.30
2022-12-08T06:36:38.422Z,12.87
2022-12-08T06:39:05.925Z,12.77
2022-12-08T06:41:33.407Z,12.70
2022-12-08T06:44:00.898Z,11.93
2022-12-08T06:46:29.757Z,13.47
2022-12-08T06:48:57.318Z,12.50
2022-12-08T06:51:24.755Z,14.00
2022-12-08T06:53:52.237Z,12.30
2022-12-08T06:56:20.443Z,13.33
2022-12-08T06:58:52.453Z,13.57
2022-12-08T07:01:20.693Z,13.33
2022-12-08T07:03:49.698Z,12.23
2022-12-08T07:06:20.497Z,10.70
2022-12-08T07:08:48.074Z,10.63
2022-12-08T07:11:21.182Z,11.93
2022-12-08T07:13:49.747Z,12.00
2022-12-08T07:16:17.293Z,12.33
2022-12-08T07:18:44.849Z,12.53
2022-12-08T07:21:15.720Z,12.43
2022-12-08T07:23:44.119Z,12.67
2022-12-08T07:26:13.398Z,11.67
2022-12-08T07:28:42.336Z,12.47
2022-12-08T07:31:18.778Z,12.43
2022-12-08T07:33:46.454Z,11.13
2022-12-08T07:36:15.588Z,10.77
2022-12-08T07:38:43.422Z,12.03
2022-12-08T07:41:14.953Z,10.73
2022-12-08T07:43:43.015Z,11.33
2022-12-08T07:46:13.494Z,10.40
2022-12-08T07:48:41.606Z,12.43
2022-12-08T07:51:09.626Z,10.53
2022-12-08T07:53:42.698Z,10.23
2022-12-08T07:56:11.826Z,11.07
2022-12-08T07:58:39.494Z,10.13
2022-12-08T08:01:07.645Z,10.93
2022-12-08T08:03:35.161Z,9.30
2022-12-08T08:06:06.395Z,12.20
2022-12-08T08:08:33.910Z,10.73
2022-12-08T08:11:08.983Z,11.13
2022-12-08T08:13:41.186Z,12.00
2022-12-08T08:16:10.764Z,10.67
2022-12-08T08:18:38.649Z,9.53
2022-12-08T08:21:36.337Z,10.10
2022-12-08T08:23:54.359Z,9.57
2022-12-08T08:26:23.162Z,9.60
2022-12-08T08:28:50.642Z,9.83
2022-12-08T08:31:18.469Z,10.03
2022-12-08T08:33:48.615Z,9.83
2022-12-08T08:36:16.087Z,9.07
2022-12-08T08:38:44.153Z,9.17
2022-12-08T08:41:12.140Z,9.83
2022-12-08T08:43:40.981Z,10.00
2022-12-08T08:46:09.220Z,9.30
2022-12-08T08:48:36.824Z,9.50
2022-12-08T08:51:09.488Z,9.70
2022-12-08T08:53:37.641Z,10.13
2022-12-08T08:56:10.212Z,8.83
2022-12-08T08:58:37.706Z,8.27
2022-12-08T09:01:06.900Z,10.20
2022-12-08T09:03:34.699Z,9.73
2022-12-08T09:06:02.386Z,10.10
2022-12-08T09:08:29.985Z,9.50
2022-12-08T09:10:57.566Z,10.23
2022-12-08T09:13:25.039Z,9.63
2022-12-08T09:15:52.608Z,11.50
2022-12-08T09:18:21.480Z,9.13
2022-12-08T09:20:48.941Z,9.73
2022-12-08T09:23:16.453Z,11.47
2022-12-08T09:25:44.966Z,9.17
2022-12-08T09:28:12.737Z,9.17
2022-12-08T09:30:40.305Z,9.70
2022-12-08T09:33:07.973Z,10.03
2022-12-08T09:35:37.013Z,10.37
2022-12-08T09:38:04.485Z,9.07
2022-12-08T09:40:38.088Z,9.40
2022-12-08T09:43:19.564Z,10.43
2022-12-08T09:45:51.617Z,10.10
2022-12-08T09:48:23.315Z,8.47
2022-12-08T09:50:55.976Z,9.70
2022-12-08T09:53:35.097Z,10.40
2022-12-08T09:56:08.166Z,9.87
2022-12-08T09:58:47.545Z,9.67
2022-12-08T10:01:15.540Z,9.07
2022-12-08T10:03:43.727Z,9.33
2022-12-08T10:06:31.587Z,8.97
2022-12-08T10:09:12.479Z,8.20
2022-12-08T10:11:52.287Z,9.47
2022-12-08T10:14:27.681Z,8.30
2022-12-08T10:17:02.351Z,8.50
2022-12-08T10:19:30.703Z,7.43
2022-12-08T10:21:59.712Z,7.50
2022-12-08T10:24:33.142Z,8.17
2022-12-08T10:27:02.526Z,8.57
2022-12-08T10:29:30.189Z,8.13
2022-12-08T10:31:59.802Z,8.37
2022-12-08T10:34:27.878Z,8.33
2022-12-08T10:36:57.365Z,8.70
2022-12-08T10:39:35.315Z,8.13
2022-12-08T10:42:07.809Z,9.97
2022-12-08T10:44:48.323Z,8.20
2022-12-08T10:47:16.684Z,8.67
2022-12-08T10:49:44.195Z,9.10
2022-12-08T10:52:23.603Z,6.83
2022-12-08T10:54:55.337Z,6.70
2022-12-08T10:57:25.294Z,7.93
2022-12-08T10:59:55.728Z,8.33
2022-12-08T11:02:24.131Z,9.53
2022-12-08T11:05:00.185Z,8.50
2022-12-08T11:07:28.663Z,8.77
2022-12-08T11:09:59.417Z,7.13
2022-12-08T11:12:30.071Z,8.83
2022-12-08T11:15:02.960Z,8.37
2022-12-08T11:17:39.190Z,8.70
2022-12-08T11:20:21.586Z,8.30
2022-12-08T11:22:54.434Z,7.27
2022-12-08T11:25:25.725Z,9.43
2022-12-08T11:27:55.431Z,8.67
2022-12-08T11:30:25.324Z,7.47
2022-12-08T11:32:57.239Z,7.43
2022-12-08T11:35:28.066Z,6.87
2022-12-08T11:38:13.537Z,8.30
2022-12-08T11:40:51.311Z,7.83
2022-12-08T11:43:23.880Z,7.03
2022-12-08T11:45:57.204Z,6.63
2022-12-08T11:48:31.109Z,7.83
2022-12-08T11:51:03.391Z,7.53
2022-12-08T11:53:40.167Z,7.60
2022-12-08T11:56:17.550Z,7.30
2022-12-08T11:58:49.491Z,7.73
2022-12-08T12:01:21.255Z,7.83
2022-12-08T12:03:59.216Z,6.80
2022-12-08T12:06:59.520Z,6.47
2022-12-08T12:09:38.746Z,7.37
2022-12-08T12:12:21.563Z,6.80
2022-12-08T12:15:13.553Z,7.73
2022-12-08T12:17:46.122Z,5.50
2022-12-08T12:20:19.346Z,7.60
2022-12-08T12:22:51.499Z,5.17
2022-12-08T12:25:24.497Z,5.53
2022-12-08T12:27:58.548Z,5.30
2022-12-08T12:30:28.237Z,5.00
2022-12-08T12:32:59.197Z,5.50
2022-12-08T12:35:34.019Z,5.27
2022-12-08T12:38:05.175Z,3.53
2022-12-08T12:40:40.542Z,5.03
2022-12-08T12:43:30.921Z,4.10
2022-12-08T12:46:28.261Z,3.00
2022-12-08T12:49:34.085Z,2.40
2022-12-08T12:52:03.033Z,2.43
2022-12-08T12:54:30.909Z,2.40
2022-12-08T12:57:17.090Z,2.53
2022-12-08T12:59:51.637Z,2.50
2022-12-08T13:02:24.540Z,3.10
2022-12-08T13:05:01.765Z,2.37
2022-12-08T13:07:33.962Z,2.77
2022-12-08T13:10:05.736Z,2.40
2022-12-08T13:12:33.459Z,2.30
2022-12-08T13:15:06.930Z,2.53
2022-12-08T13:17:38.234Z,2.73
2022-12-08T13:20:08.092Z,2.40
2022-12-08T13:23:13.022Z,2.30
2022-12-08T13:26:09.264Z,2.00
2022-12-08T13:29:21.512Z,2.30
2022-12-08T13:31:52.153Z,2.83
2022-12-08T13:34:23.490Z,2.17
2022-12-08T13:37:00.259Z,2.27
2022-12-08T13:39:37.549Z,1.90
2022-12-08T13:42:14.811Z,1.97
2022-12-08T13:47:59.617Z,2.00
2022-12-08T13:59:25.111Z,3.47
2022-12-08T14:01:52.892Z,3.53
2022-12-08T14:04:42.674Z,3.83
2022-12-08T14:07:12.513Z,3.30
2022-12-08T14:09:42.050Z,3.80
2022-12-08T14:12:20.572Z,3.53
2022-12-08T14:15:03.231Z,3.93
2022-12-08T14:17:31.869Z,4.73
2022-12-08T14:20:01.546Z,4.87
2022-12-08T14:22:34.236Z,3.83
2022-12-08T14:25:01.985Z,4.17
2022-12-08T14:27:36.048Z,4.17
2022-12-08T14:30:07.291Z,3.30
2022-12-08T14:32:38.609Z,3.50
2022-12-08T14:35:19.082Z,4.23
2022-12-08T14:37:48.916Z,3.60
2022-12-08T14:40:23.717Z,4.33
2022-12-08T14:42:54.633Z,4.03
2022-12-08T14:45:22.567Z,3.53
2022-12-08T14:47:51.122Z,3.60
2022-12-08T14:50:40.161Z,4.80
2022-12-08T14:53:13.816Z,4.60
2022-12-08T14:55:41.874Z,4.40
2022-12-08T14:58:18.826Z,3.93
2022-12-08T15:00:48.764Z,3.80
2022-12-08T15:03:17.058Z,3.90
2022-12-08T15:05:45.614Z,4.00
2022-12-08T15:08:13.774Z,3.77
2022-12-08T15:10:47.967Z,3.30
2022-12-08T15:13:26.160Z,4.10
2022-12-08T15:15:56.141Z,3.90
2022-12-08T15:18:31.373Z,3.77
2022-12-08T15:21:03.767Z,5.03
2022-12-08T15:23:33.613Z,3.40
2022-12-08T15:26:01.341Z,3.50
2022-12-08T15:28:30.746Z,4.23
2022-12-08T15:30:59.230Z,4.80
2022-12-08T15:33:27.532Z,4.83
2022-12-08T15:35:55.087Z,3.80
2022-12-08T15:38:25.670Z,4.40
2022-12-08T15:40:54.340Z,5.13
2022-12-08T15:43:22.878Z,3.73
2022-12-08T15:46:01.148Z,4.13
2022-12-08T15:48:30.350Z,3.77
2022-12-08T15:50:58.518Z,3.70
2022-12-08T15:53:27.117Z,4.10
2022-12-08T15:58:58.647Z,4.53
2022-12-08T16:01:28.020Z,4.20
2022-12-08T16:07:19.757Z,3.90
2022-12-08T16:09:36.488Z,3.60
2022-12-08T16:12:22.169Z,4.00
2022-12-08T16:17:40.031Z,3.10
2022-12-08T16:20:12.127Z,3.20
2022-12-08T16:23:07.675Z,2.77
2022-12-08T16:25:36.367Z,2.53
2022-12-08T16:28:45.373Z,3.13
2022-12-08T16:31:01.660Z,2.80
2022-12-08T16:33:30.460Z,3.27
2022-12-08T16:35:57.958Z,3.53
2022-12-08T16:38:25.402Z,2.60
2022-12-08T16:41:10.492Z,2.73
2022-12-08T16:43:38.007Z,3.00
2022-12-08T16:46:05.952Z,2.70
2022-12-08T16:48:34.881Z,2.93
2022-12-08T16:51:04.401Z,3.57
2022-12-08T16:53:31.866Z,3.67
2022-12-08T16:55:59.378Z,3.03
2022-12-08T16:58:26.865Z,3.40
2022-12-08T17:00:54.495Z,2.60
2022-12-08T17:07:10.389Z,3.10
2022-12-08T17:09:37.843Z,3.43
2022-12-08T17:12:05.478Z,2.73
2022-12-08T17:14:34.730Z,2.80
2022-12-08T17:17:02.302Z,4.60
2022-12-08T17:19:29.861Z,3.47
2022-12-08T17:21:57.333Z,2.93
2022-12-08T17:24:28.946Z,2.67
2022-12-08T17:26:56.891Z,2.53
2022-12-08T17:29:24.898Z,2.33
2022-12-08T17:31:52.458Z,2.03
2022-12-08T17:34:20.006Z,2.73
2022-12-08T17:36:47.486Z,2.07
2022-12-08T17:39:18.698Z,1.77
2022-12-08T17:41:48.298Z,2.07
2022-12-08T17:44:18.062Z,2.20
2022-12-08T17:46:52.191Z,2.23
2022-12-08T17:49:23.314Z,2.83
2022-12-08T17:51:53.160Z,2.10
2022-12-08T17:54:21.110Z,2.80
2022-12-08T17:56:49.920Z,3.13
2022-12-08T17:59:17.560Z,3.27
2022-12-08T18:01:45.178Z,3.97
2022-12-08T18:04:13.838Z,3.80
2022-12-08T18:06:41.338Z,3.93
2022-12-08T18:09:09.268Z,3.93
2022-12-08T18:11:37.671Z,4.57
2022-12-08T18:14:10.291Z,5.20
2022-12-08T18:16:39.689Z,5.00
2022-12-08T18:19:08.476Z,5.23
2022-12-08T18:21:36.853Z,5.50
2022-12-08T18:24:04.774Z,4.83
2022-12-08T18:26:32.433Z,4.87
2022-12-08T18:29:00.145Z,5.50
2022-12-08T18:31:29.007Z,5.50
2022-12-08T18:33:56.521Z,5.13
2022-12-08T18:36:26.116Z,5.87
2022-12-08T18:38:54.482Z,6.17
2022-12-08T18:41:24.534Z,5.47
2022-12-08T18:43:52.511Z,6.63
2022-12-08T18:46:20.132Z,5.97
2022-12-08T18:48:50.179Z,5.43
2022-12-08T18:51:19.067Z,6.07
2022-12-08T18:53:47.275Z,4.97
2022-12-08T18:56:26.791Z,5.87
2022-12-08T18:58:59.887Z,6.93
2022-12-08T19:01:30.821Z,7.03
2022-12-08T19:06:47.601Z,7.17
2022-12-08T19:09:15.742Z,7.23
2022-12-08T19:11:43.931Z,5.83
2022-12-08T19:14:12.008Z,6.40
2022-12-08T19:16:39.567Z,5.10
2022-12-08T19:19:08.410Z,5.43
2022-12-08T19:21:36.890Z,5.80
2022-12-08T19:24:07.843Z,6.67
2022-12-08T19:26:36.096Z,6.80
2022-12-08T19:29:03.605Z,7.30
2022-12-08T19:31:31.106Z,6.30
2022-12-08T19:33:58.600Z,5.30
2022-12-08T19:36:27.689Z,8.80
2022-12-08T19:39:13.026Z,6.83
2022-12-08T19:41:58.426Z,6.90
2022-12-08T19:44:45.391Z,6.77
2022-12-08T19:47:13.048Z,6.50
2022-12-08T19:49:40.650Z,6.07
2022-12-08T19:52:10.334Z,6.43
2022-12-08T19:54:37.823Z,7.07
2022-12-08T19:57:05.342Z,7.60
2022-12-08T19:59:32.891Z,6.27
2022-12-08T20:02:01.002Z,5.80
2022-12-08T20:04:28.991Z,7.37
2022-12-08T20:06:57.564Z,7.00
2022-12-08T20:09:26.651Z,7.80
2022-12-08T20:11:54.928Z,6.97
2022-12-08T20:14:22.973Z,7.83
2022-12-08T20:16:50.739Z,8.27
2022-12-08T20:19:18.442Z,7.57
2022-12-08T20:21:46.064Z,6.57
2022-12-08T20:24:13.655Z,7.13
2022-12-08T20:26:42.521Z,6.73
2022-12-08T20:29:10.375Z,6.17
2022-12-08T20:31:37.899Z,6.80
2022-12-08T20:34:05.534Z,7.13
2022-12-08T20:36:33.035Z,7.03
2022-12-08T20:39:00.492Z,7.67
2022-12-08T20:41:27.930Z,6.87
2022-12-08T20:43:56.733Z,7.50
2022-12-08T20:46:24.275Z,7.03
2022-12-08T20:48:51.944Z,7.30
2022-12-08T20:51:20.286Z,7.67
2022-12-08T20:53:48.442Z,7.53
2022-12-08T20:56:17.624Z,7.17
2022-12-08T20:58:45.734Z,7.73
2022-12-08T21:01:16.772Z,7.27
2022-12-08T21:03:45.342Z,7.43
2022-12-08T21:06:13.621Z,6.50
2022-12-08T21:08:41.829Z,7.67
2022-12-08T21:11:10.440Z,6.50
2022-12-08T21:13:38.753Z,6.63
2022-12-08T21:16:09.157Z,6.40
2022-12-08T21:18:39.929Z,8.07
2022-12-08T21:21:10.721Z,7.13
2022-12-08T21:23:38.617Z,8.17
2022-12-08T21:26:11.788Z,6.90
2022-12-08T21:28:39.439Z,7.27
2022-12-08T21:31:08.704Z,6.63
2022-12-08T21:33:38.833Z,7.10
2022-12-08T21:36:09.434Z,7.90
2022-12-08T21:38:38.231Z,6.40
2022-12-08T21:41:06.937Z,5.60
2022-12-08T21:43:33.621Z,6.07
2022-12-08T21:46:01.437Z,5.40
2022-12-08T21:48:29.244Z,6.23
2022-12-08T21:51:03.987Z,6.03
2022-12-08T21:53:31.711Z,7.37
2022-12-08T21:55:59.241Z,7.40
2022-12-08T21:58:27.131Z,6.70
2022-12-08T22:00:54.787Z,5.93
2022-12-08T22:03:22.622Z,6.70
2022-12-08T22:05:50.275Z,7.37
2022-12-08T22:08:19.173Z,5.90
2022-12-08T22:10:48.269Z,6.87
2022-12-08T22:13:15.845Z,8.27
2022-12-08T22:15:43.372Z,5.17
2022-12-08T22:18:11.297Z,5.30
2022-12-08T22:20:44.095Z,5.10
2022-12-08T22:23:12.194Z,6.00
2022-12-08T22:25:41.040Z,4.70
2022-12-08T22:28:08.821Z,4.90
2022-12-08T22:30:39.216Z,4.80
2022-12-08T22:33:07.307Z,5.83
2022-12-08T22:35:35.086Z,4.57
2022-12-08T22:38:02.631Z,8.70
2022-12-08T22:40:30.207Z,4.60
2022-12-08T22:42:59.295Z,5.17
2022-12-08T22:45:27.171Z,4.33
2022-12-08T22:47:54.718Z,5.43
2022-12-08T22:50:22.397Z,4.27
2022-12-08T22:52:50.116Z,4.10
2022-12-08T22:55:17.616Z,4.63
2022-12-08T22:57:45.301Z,4.37
2022-12-08T23:00:15.187Z,5.53
2022-12-08T23:02:42.741Z,4.67
2022-12-08T23:05:11.736Z,6.00
2022-12-08T23:07:40.282Z,4.87
2022-12-08T23:10:09.774Z,4.80
2022-12-08T23:12:37.821Z,4.70
2022-12-08T23:15:06.392Z,4.17
2022-12-08T23:17:35.285Z,4.93
2022-12-08T23:20:03.026Z,4.17
2022-12-08T23:22:30.764Z,3.73
2022-12-08T23:24:58.243Z,4.30
2022-12-08T23:27:25.787Z,3.97
2022-12-08T23:29:53.443Z,3.80
2022-12-08T23:32:21.089Z,5.30
2022-12-08T23:34:49.995Z,4.73
2022-12-08T23:37:17.602Z,4.00
2022-12-08T23:39:45.527Z,4.10
2022-12-08T23:42:13.316Z,5.03
2022-12-08T23:44:40.989Z,5.10
2022-12-08T23:47:08.610Z,6.33
2022-12-08T23:49:36.138Z,4.77
2022-12-08T23:52:05.370Z,4.50
2022-12-08T23:54:33.752Z,5.70
2022-12-08T23:57:01.467Z,4.50
2022-12-08T23:59:29.027Z,5.80
